Highland Park, IL

5:25 AM CST on November 23, 2017 (GMT -0600)
Highland Park Ravinia North | | Change Station

Elev 712 ft 42.18 °N, 87.80 °W | Updated 3 seconds ago

Overcast
Overcast
32.9 °F
Feels Like 27 °F
N
6.0
Wind Variable Wind from SSW
Gusts 6.0 mph

Today
High -- | Low -- °F
--% Chance of Precip.
Yesterday
High -- | Low -- °F
Precip. -- in
Pressure 30.08 in
Visibility 10.0 miles
Clouds Overcast 7500 ft
Windchill 27 °F
Dew Point 19 °F
Humidity 56%
Rainfall 0.00 in
Snow Depth Not available.
6:51 AM 4:23 PM
Waxing Crescent, 21% visible
METAR KPWK 231052Z AUTO 20009KT 10SM OVC075 01/M07 A3006 RMK AO2 SLP186 T00111067
Pressure 30.08 in
Visibility 10.0 miles
Clouds Overcast 7500 ft
Windchill 27 °F
Dew Point 19 °F
Humidity 56%
Rainfall 0.00 in
Snow Depth Not available.
6:51 AM 4:23 PM
Waxing Crescent, 21% visible
METAR KPWK 231052Z AUTO 20009KT 10SM OVC075 01/M07 A3006 RMK AO2 SLP186 T00111067

Get Severe Weather Alerts

Thanks for signing up!

Be on the lookout for a verification email in your inbox.

You'll start receiving the daily forecast at 6 AM.

×

10-Day Weather Forecast

Almanac

Astronomy

Nov. 23, 2017 Rise Set
Actual Time
Civil Twilight
Nautical Twilight
Astronomical Twilight
Moon
Length of Visible Light
Length of Day
Tomorrow will be .
, % of the Moon is Illuminated

Today's Extremes

State Highs State Lows

Community

WunderPhotos

Category 6

Welcome to Category 6. This is the collective home for Weather Underground's featured writeups by Dr. Jeff Masters (right), Bob Henson (left), Chris Burt, and other regular contributors.

Nearby

Air Quality

  Air Quality AQ Index Pollutant
Not available.

Snow Depth

Station Depth Elevation

Earthquake Activity

City Distance Mag. Time & Date
Minimum magnitude displayed is 2.5.

Coastal Water Temperatures

Place Temperature

Stations

Nearby Weather Stations

Station Location Temp. Windchill Dew Point Humidity Wind Precip. Elev Updated Type
                   

Watches & Warnings

There are currently no watches in effect.